Time,TemperatureF,DewpointF,PressureIn,WindDirection,WindDirectionDegrees,WindSpeedMPH,WindSpeedGustMPH,Humidity,HourlyPrecipIn,Conditions,Clouds,dailyrainin,SoftwareType,DateUTC
2013-08-04 00:12:00,61.3,55.0,30.23,West,270,0.0,3.0,79,0.00,,,0.00,weatherlink.com 1.10,2013-08-04 05:12:00,
2013-08-04 00:26:00,61.2,55.0,30.23,West,270,0.0,1.0,81,0.00,,,0.00,weatherlink.com 1.10,2013-08-04 05:26:00,
2013-08-04 00:41:00,61.2,56.0,30.23,West,270,0.0,0.0,83,0.00,,,0.00,weatherlink.com 1.10,2013-08-04 05:41:00,
2013-08-04 00:56:00,61.0,56.0,30.23,West,270,0.0,0.0,82,0.00,,,0.00,weatherlink.com 1.10,2013-08-04 05:56:00,
2013-08-04 01:11:00,60.0,54.0,30.24,West,270,0.0,2.0,81,0.00,,,0.00,weatherlink.com 1.10,2013-08-04 06:11:00,
2013-08-04 01:27:00,59.1,54.0,30.24,West,270,0.0,0.0,83,0.00,,,0.00,weatherlink.com 1.10,2013-08-04 06:27:00,
2013-08-04 01:42:00,59.0,55.0,30.25,West,270,0.0,0.0,85,0.00,,,0.00,weatherlink.com 1.10,2013-08-04 06:42:00,
2013-08-04 01:57:00,58.4,54.0,30.24,West,270,0.0,0.0,84,0.00,,,0.00,weatherlink.com 1.10,2013-08-04 06:57:00,
2013-08-04 02:12:00,57.9,54.0,30.25,West,270,0.0,0.0,85,0.00,,,0.00,weatherlink.com 1.10,2013-08-04 07:12:00,
2013-08-04 02:27:00,57.8,54.0,30.26,West,270,0.0,0.0,86,0.00,,,0.00,weatherlink.com 1.10,2013-08-04 07:27:00,
2013-08-04 02:42:00,57.5,54.0,30.26,West,270,0.0,0.0,87,0.00,,,0.00,weatherlink.com 1.10,2013-08-04 07:42:00,
2013-08-04 02:57:00,57.3,54.0,30.25,West,270,0.0,0.0,88,0.00,,,0.00,weatherlink.com 1.10,2013-08-04 07:57:00,
2013-08-04 03:12:00,57.2,54.0,30.26,West,270,0.0,0.0,88,0.00,,,0.00,weatherlink.com 1.10,2013-08-04 08:12:00,
2013-08-04 03:27:00,57.6,55.0,30.25,West,270,0.0,0.0,91,0.00,,,0.00,weatherlink.com 1.10,2013-08-04 08:27:00,
2013-08-04 03:42:00,57.4,55.0,30.25,West,270,0.0,0.0,92,0.00,,,0.00,weatherlink.com 1.10,2013-08-04 08:42:00,
2013-08-04 03:57:00,57.0,55.0,30.24,West,270,0.0,0.0,92,0.00,,,0.00,weatherlink.com 1.10,2013-08-04 08:57:00,
2013-08-04 04:12:00,57.0,55.0,30.24,West,270,3.0,3.0,92,0.00,,,0.00,weatherlink.com 1.10,2013-08-04 09:12:00,
2013-08-04 04:27:00,56.6,54.0,30.24,West,270,0.0,2.0,91,0.00,,,0.00,weatherlink.com 1.10,2013-08-04 09:27:00,
2013-08-04 04:42:00,56.2,53.0,30.24,West,270,0.0,5.0,90,0.00,,,0.00,weatherlink.com 1.10,2013-08-04 09:42:00,
2013-08-04 04:57:00,56.2,53.0,30.24,West,270,0.0,5.0,89,0.00,,,0.00,weatherlink.com 1.10,2013-08-04 09:57:00,
2013-08-04 05:12:00,55.8,53.0,30.24,West,270,0.0,0.0,89,0.00,,,0.00,weatherlink.com 1.10,2013-08-04 10:12:00,
2013-08-04 05:27:00,55.8,53.0,30.24,West,270,0.0,0.0,90,0.00,,,0.00,weatherlink.com 1.10,2013-08-04 10:27:00,
2013-08-04 05:42:00,55.5,53.0,30.24,West,270,0.0,4.0,90,0.00,,,0.00,weatherlink.com 1.10,2013-08-04 10:42:00,
2013-08-04 05:57:00,55.0,52.0,30.25,West,270,0.0,0.0,90,0.00,,,0.00,weatherlink.com 1.10,2013-08-04 10:57:00,
2013-08-04 06:12:00,55.0,53.0,30.24,West,270,0.0,0.0,91,0.00,,,0.00,weatherlink.com 1.10,2013-08-04 11:12:00,
2013-08-04 06:27:00,55.4,54.0,30.26,West,270,0.0,0.0,93,0.00,,,0.00,weatherlink.com 1.10,2013-08-04 11:27:00,
2013-08-04 06:42:00,56.4,55.0,30.27,West,270,0.0,0.0,93,0.00,,,0.00,weatherlink.com 1.10,2013-08-04 11:42:00,
2013-08-04 06:57:00,57.4,55.0,30.27,West,270,0.0,0.0,91,0.00,,,0.00,weatherlink.com 1.10,2013-08-04 11:57:00,
2013-08-04 07:12:00,58.2,55.0,30.28,West,270,0.0,0.0,89,0.00,,,0.00,weatherlink.com 1.10,2013-08-04 12:12:00,
2013-08-04 07:27:00,58.7,54.0,30.28,West,270,0.0,0.0,85,0.00,,,0.00,weatherlink.com 1.10,2013-08-04 12:27:00,
2013-08-04 07:42:00,57.9,53.0,30.28,West,270,0.0,6.0,84,0.00,,,0.00,weatherlink.com 1.10,2013-08-04 12:42:00,
2013-08-04 07:57:00,59.0,54.0,30.27,West,270,0.0,4.0,83,0.00,,,0.00,weatherlink.com 1.10,2013-08-04 12:57:00,
2013-08-04 08:12:00,60.4,55.0,30.28,West,270,0.0,0.0,82,0.00,,,0.00,weatherlink.com 1.10,2013-08-04 13:12:00,
2013-08-04 08:27:00,61.3,55.0,30.28,West,270,0.0,0.0,79,0.00,,,0.00,weatherlink.com 1.10,2013-08-04 13:27:00,
2013-08-04 08:42:00,63.0,55.0,30.29,West,270,0.0,1.0,75,0.00,,,0.00,weatherlink.com 1.10,2013-08-04 13:42:00,
2013-08-04 08:57:00,64.5,56.0,30.29,NE,53,0.0,0.0,73,0.00,,,0.00,weatherlink.com 1.10,2013-08-04 13:57:00,
2013-08-04 09:27:00,66.9,57.0,30.29,NNE,28,0.0,4.0,70,0.00,,,0.00,weatherlink.com 1.10,2013-08-04 14:27:00,
2013-08-04 09:42:00,67.5,57.0,30.29,North,360,0.0,4.0,69,0.00,,,0.00,weatherlink.com 1.10,2013-08-04 14:42:00,
2013-08-04 09:57:00,68.7,57.0,30.29,WNW,290,0.0,5.0,67,0.00,,,0.00,weatherlink.com 1.10,2013-08-04 14:57:00,
2013-08-04 10:13:00,69.8,57.0,30.28,WNW,290,0.0,0.0,65,0.00,,,0.00,weatherlink.com 1.10,2013-08-04 15:13:00,
2013-08-04 10:28:00,70.4,58.0,30.28,West,281,0.0,5.0,64,0.00,,,0.00,weatherlink.com 1.10,2013-08-04 15:28:00,
2013-08-04 10:43:00,70.8,57.0,30.27,West,281,0.0,4.0,63,0.00,,,0.00,weatherlink.com 1.10,2013-08-04 15:43:00,
2013-08-04 10:58:00,72.0,58.0,30.26,West,279,0.0,2.0,62,0.00,,,0.00,weatherlink.com 1.10,2013-08-04 15:58:00,
2013-08-04 11:13:00,73.5,59.0,30.26,West,270,0.0,4.0,60,0.00,,,0.00,weatherlink.com 1.10,2013-08-04 16:13:00,
2013-08-04 11:28:00,74.9,55.0,30.25,SSE,159,4.0,8.0,50,0.00,,,0.00,weatherlink.com 1.10,2013-08-04 16:28:00,
2013-08-04 11:43:00,73.7,56.0,30.25,South,171,6.0,11.0,54,0.00,,,0.00,weatherlink.com 1.10,2013-08-04 16:43:00,
2013-08-04 11:58:00,73.9,52.0,30.24,SSW,198,7.0,11.0,47,0.00,,,0.00,weatherlink.com 1.10,2013-08-04 16:58:00,
2013-08-04 12:13:00,73.7,53.0,30.23,South,174,1.0,12.0,49,0.00,,,0.00,weatherlink.com 1.10,2013-08-04 17:13:00,
2013-08-04 12:43:00,73.4,54.0,30.22,SW,221,4.0,9.0,51,0.00,,,0.00,weatherlink.com 1.10,2013-08-04 17:43:00,
2013-08-04 12:58:00,73.6,55.0,30.22,WSW,244,0.0,6.0,52,0.00,,,0.00,weatherlink.com 1.10,2013-08-04 17:58:00,
2013-08-04 13:13:00,74.7,53.0,30.22,SSW,211,0.0,7.0,47,0.00,,,0.00,weatherlink.com 1.10,2013-08-04 18:13:00,
2013-08-04 13:28:00,74.2,51.0,30.22,SW,220,2.0,7.0,45,0.00,,,0.00,weatherlink.com 1.10,2013-08-04 18:28:00,
2013-08-04 13:43:00,73.9,51.0,30.22,SW,225,0.0,8.0,45,0.00,,,0.00,weatherlink.com 1.10,2013-08-04 18:43:00,
2013-08-04 13:58:00,75.4,51.0,30.21,SSW,199,0.0,7.0,42,0.00,,,0.00,weatherlink.com 1.10,2013-08-04 18:58:00,
2013-08-04 14:13:00,74.8,49.0,30.21,SSE,154,5.0,9.0,41,0.00,,,0.00,weatherlink.com 1.10,2013-08-04 19:13:00,
2013-08-04 14:28:00,74.1,49.0,30.20,SSE,154,1.0,6.0,41,0.00,,,0.00,weatherlink.com 1.10,2013-08-04 19:28:00,
2013-08-04 14:43:00,74.1,54.0,30.20,SSE,154,2.0,6.0,50,0.00,,,0.00,weatherlink.com 1.10,2013-08-04 19:43:00,
2013-08-04 14:58:00,73.0,53.0,30.21,WNW,286,0.0,8.0,49,0.00,,,0.00,weatherlink.com 1.10,2013-08-04 19:58:00,
2013-08-04 15:13:00,73.3,53.0,30.22,WNW,286,0.0,6.0,49,0.00,,,0.00,weatherlink.com 1.10,2013-08-04 20:13:00,
2013-08-04 15:28:00,73.0,53.0,30.21,West,275,0.0,8.0,50,0.00,,,0.00,weatherlink.com 1.10,2013-08-04 20:28:00,
2013-08-04 15:43:00,72.8,54.0,30.22,West,267,5.0,7.0,51,0.00,,,0.00,weatherlink.com 1.10,2013-08-04 20:43:00,
2013-08-04 15:58:00,72.5,55.0,30.22,West,267,0.0,5.0,54,0.00,,,0.00,weatherlink.com 1.10,2013-08-04 20:58:00,
2013-08-04 16:13:00,73.6,53.0,30.20,West,267,0.0,4.0,48,0.00,,,0.00,weatherlink.com 1.10,2013-08-04 21:13:00,
2013-08-04 16:28:00,74.4,52.0,30.20,West,267,1.0,2.0,46,0.00,,,0.00,weatherlink.com 1.10,2013-08-04 21:28:00,
2013-08-04 16:43:00,73.6,51.0,30.19,West,263,0.0,7.0,46,0.00,,,0.00,weatherlink.com 1.10,2013-08-04 21:43:00,
2013-08-04 16:58:00,73.4,52.0,30.18,WSW,244,2.0,6.0,48,0.00,,,0.00,weatherlink.com 1.10,2013-08-04 21:58:00,
2013-08-04 17:13:00,72.9,52.0,30.18,WSW,244,4.0,6.0,48,0.00,,,0.00,weatherlink.com 1.10,2013-08-04 22:13:00,
2013-08-04 17:28:00,71.9,53.0,30.18,WSW,244,2.0,5.0,52,0.00,,,0.00,weatherlink.com 1.10,2013-08-04 22:28:00,
2013-08-04 17:43:00,71.7,54.0,30.18,WSW,244,0.0,0.0,53,0.00,,,0.00,weatherlink.com 1.10,2013-08-04 22:43:00,
2013-08-04 17:58:00,71.9,54.0,30.18,WSW,244,0.0,1.0,54,0.00,,,0.00,weatherlink.com 1.10,2013-08-04 22:58:00,
2013-08-04 18:13:00,72.0,55.0,30.17,WSW,244,0.0,0.0,55,0.00,,,0.00,weatherlink.com 1.10,2013-08-04 23:13:00,
2013-08-04 18:28:00,72.2,57.0,30.17,WSW,244,0.0,0.0,60,0.00,,,0.00,weatherlink.com 1.10,2013-08-04 23:28:00,
2013-08-04 18:43:00,72.3,58.0,30.17,WSW,244,0.0,0.0,60,0.00,,,0.00,weatherlink.com 1.10,2013-08-04 23:43:00,
2013-08-04 18:58:00,72.4,56.0,30.16,WSW,244,4.0,5.0,57,0.00,,,0.00,weatherlink.com 1.10,2013-08-04 23:58:00,
2013-08-04 19:13:00,72.1,54.0,30.16,WSW,244,0.0,1.0,54,0.00,,,0.00,weatherlink.com 1.10,2013-08-05 00:13:00,
2013-08-04 19:28:00,72.6,54.0,30.16,WSW,244,4.0,5.0,53,0.00,,,0.00,weatherlink.com 1.10,2013-08-05 00:28:00,
2013-08-04 19:43:00,71.9,55.0,30.16,WSW,244,0.0,4.0,55,0.00,,,0.00,weatherlink.com 1.10,2013-08-05 00:43:00,
2013-08-04 19:58:00,71.6,55.0,30.15,WSW,244,3.0,3.0,56,0.00,,,0.00,weatherlink.com 1.10,2013-08-05 00:58:00,
2013-08-04 20:13:00,71.2,56.0,30.15,WSW,244,3.0,5.0,58,0.00,,,0.00,weatherlink.com 1.10,2013-08-05 01:13:00,
2013-08-04 20:28:00,70.9,56.0,30.14,WSW,244,0.0,5.0,60,0.00,,,0.00,weatherlink.com 1.10,2013-08-05 01:28:00,
2013-08-04 20:43:00,69.8,57.0,30.14,WSW,244,0.0,4.0,65,0.00,,,0.00,weatherlink.com 1.10,2013-08-05 01:43:00,
2013-08-04 20:58:00,69.4,58.0,30.14,WSW,244,2.0,5.0,67,0.00,,,0.00,weatherlink.com 1.10,2013-08-05 01:58:00,
2013-08-04 21:13:00,69.0,58.0,30.14,WSW,244,0.0,5.0,69,0.00,,,0.00,weatherlink.com 1.10,2013-08-05 02:13:00,
2013-08-04 21:28:00,68.7,61.0,30.15,WSW,244,0.0,0.0,75,0.00,,,0.00,weatherlink.com 1.10,2013-08-05 02:28:00,
2013-08-04 21:43:00,67.5,59.0,30.15,WSW,244,0.0,0.0,74,0.00,,,0.00,weatherlink.com 1.10,2013-08-05 02:43:00,
2013-08-04 21:59:00,67.1,60.0,30.14,WSW,244,5.0,6.0,78,0.00,,,0.00,weatherlink.com 1.10,2013-08-05 02:59:00,
2013-08-04 22:14:00,66.3,60.0,30.14,WSW,244,0.0,6.0,81,0.00,,,0.00,weatherlink.com 1.10,2013-08-05 03:14:00,
2013-08-04 22:28:00,65.8,60.0,30.13,WSW,244,0.0,5.0,80,0.00,,,0.00,weatherlink.com 1.10,2013-08-05 03:28:00,
2013-08-04 22:43:00,65.3,59.0,30.13,WSW,244,0.0,4.0,80,0.00,,,0.00,weatherlink.com 1.10,2013-08-05 03:43:00,
2013-08-04 22:59:00,65.0,60.0,30.14,WSW,244,0.0,6.0,83,0.00,,,0.00,weatherlink.com 1.10,2013-08-05 03:59:00,
2013-08-04 23:14:00,64.4,61.0,30.13,WSW,244,0.0,0.0,87,0.00,,,0.00,weatherlink.com 1.10,2013-08-05 04:14:00,
2013-08-04 23:29:00,63.8,60.0,30.13,WSW,244,0.0,0.0,87,0.00,,,0.00,weatherlink.com 1.10,2013-08-05 04:29:00,
2013-08-04 23:43:00,63.4,60.0,30.13,WSW,244,0.0,0.0,88,0.00,,,0.00,weatherlink.com 1.10,2013-08-05 04:43:00,
2013-08-04 23:59:00,63.2,60.0,30.12,WSW,244,2.0,4.0,88,0.00,,,0.00,weatherlink.com 1.10,2013-08-05 04:59:00,